Airfield :
LOGIN :

Register | Disclaimer

   EN    FR    IT 

 










Legend :    VFR   Marginal VFR   IFR   Intensive IFR   Very Intensive IFR
Visi :
Ceiling :
>= 8 km
>= 3000ft
5 to 8 km
1000 to 3000 ft
1500m to 5 km
500 to 1000 ft
800 to 1500m
200 to 500 ft
< 800m
< 200 ft
Symbols :   Thunderstorms  Fog  Heavy snow  Heavy precipitations  Wind > 20 kt
SIGMETs :     Misc.  Thunderstorms  Icing  Turbulence  Mountain Waves  Volcanic Ashes






- Airport Elevation : 14 ft
- IATA code : BRE


EDDW - Bremen Neuenland

CURRENT METAR :
  • 261820Z 24002KT 9999 FEW044 01/00 Q1016 R88/290095 NOSIG

EXPIRED METARs :
  • 261750Z 24007KT 9999 -SHSNRA SCT019 BKN045 02/01 Q1016 R88/290095 NOSIG
  • 261720Z 29013KT 7000 -SHSNRA FEW009 BKN024 02/01 Q1016 R88/290095 TEMPO 4500 BKN013CB
  • 261650Z VRB02KT 9999 SCT018 SCT043 02/01 Q1016 R88/290095 TEMPO BKN013CB
  • 261620Z 25003KT 230V290 9999 VCSH SCT018 BKN024 01/01 Q1015 R88/290095 NOSIG
  • 261550Z 25003KT 220V280 9999 -SHRA SCT019 SCT034 01/00 Q1015 R88/190095 NOSIG

TAF TAF EDDW
Valid from the 26 at 18:00 until the 27 at 18:00 UTC


261700Z 2618/2718 24004KT 9999 FEW013 SCT035
PROB30
TEMPO 2618/2621 28010KT FEW007 SCT013CB
PROB30
TEMPO 2621/2702 4000 BR
TEMPO 2701/2704 BKN009
BECMG 2704/2706 19009KT
TEMPO 2709/2713 4500 -SN BKN007
TEMPO 2713/2718 2000 -RA BR OVC003



MET'MAP, your aeronautical weather chart ! - Copyright ORBIFLY December 2007 - Disclaimer

ORBIFLY MET'MAP TEAM :

Programming & Development : Alexandra Zaïnal
Concept & original design : Baudouin d'Aumeries
Assistance for programming : Marc-Olivier Méhu
Technical & hardware support : Manuel Goepfert

Contact : metmap@orbifly.com




SOURCES & CREDITS :

   NOAA